This is the latest recevied weather packets stored in our database for station/object SP3VBV-2. If no packets are shown the sender has not sent any weather packets the latest 10 day(s).
| Time | Temp. | Humidity | Pressure | Rain* | Wind** | Luminosity | Snow |
|---|---|---|---|---|---|---|---|
| 1777941126 | 14.44° C | 68% | 1009.9 hPa | - | - | - | - |
| 1777940526 | 15° C | 64% | 1010 hPa | - | - | - | - |
| 1777939926 | 15° C | 65% | 1010 hPa | - | - | - | - |
| 1777939326 | 14.44° C | 67% | 1010.1 hPa | - | - | - | - |
| 1777938728 | 14.44° C | 69% | 1010.2 hPa | - | - | - | - |
| 1777938126 | 14.44° C | 68% | 1010.3 hPa | - | - | - | - |
| 1777937526 | 14.44° C | 71% | 1010.3 hPa | - | - | - | - |
| 1777936926 | 16.67° C | 51% | 1010.1 hPa | - | - | - | - |
| 1777936327 | 16.67° C | 51% | 1010.1 hPa | - | - | - | - |
| 1777935726 | 16.67° C | 53% | 1010.2 hPa | - | - | - | - |
| 1777935155 | 16.11° C | 55% | 1010.3 hPa | - | - | - | - |
| 1777934526 | 15.56° C | 61% | 1010.3 hPa | - | - | - | - |
| 1777933926 | 15.56° C | 69% | 1010.3 hPa | - | - | - | - |
| 1777933327 | 16.11° C | 62% | 1010.3 hPa | - | - | - | - |
| 1777932725 | 15.56° C | 64% | 1010.4 hPa | - | - | - | - |
| 1777931525 | 15.56° C | 74% | 1010.4 hPa | - | - | - | - |
| 1777931516 | 16.11° C | 70% | 1010.5 hPa | - | - | - | - |
| 1777930917 | 17.22° C | 61% | 1010.5 hPa | - | - | - | - |
| 1777929725 | 17.22° C | 62% | 1010.5 hPa | - | - | - | - |
| 1777929124 | 16.67° C | 63% | 1010.5 hPa | - | - | - | - |
| 1777928524 | 16.11° C | 72% | 1010.6 hPa | - | - | - | - |
| 1777927924 | 16.11° C | 72% | 1010.6 hPa | - | - | - | - |
| 1777927325 | 16.11° C | 73% | 1010.6 hPa | - | - | - | - |
| 1777926725 | 16.67° C | 72% | 1010.6 hPa | - | - | - | - |
| 1777926124 | 16.67° C | 71% | 1010.6 hPa | - | - | - | - |
* Rain since midnight (hover to see other rain measurements)
** Current wind speed in m/s (hover to see current wind gust speed)